OTBD

Doha International Airport

Doha, Qatar
TAF OTBD 201703Z 2018/2200 14005KT 8000 NSC BECMG 2100/2102 20008KT BECMG 2109/2111 13012KT
Issued Valid From Valid To
Apr-20 @ 17:03 UTC
(2 hours ago)
Apr-20 @ 18:00 UTC
(38 minutes ago)
Apr-22 @ 00:00 UTC
(-1 days ago)
Apr-20 @ 18:00 to Apr-21 @ 00:00
TAF OTBD 201703Z 2018/2200 14005KT 8000 NSC
Wind Visibility Clouds
140° at 5 knots 7,998 meters
  • No significant clouds
Becoming Apr-21 @ 00:00 to Apr-21 @ 09:00
BECMG 2100/2102 20008KT
Wind Visibility Clouds
200° at 8 knots 7,998 meters
  • No significant clouds
Becoming Apr-21 @ 09:00 to Apr-22 @ 00:00
BECMG 2109/2111 13012KT
Wind Visibility Clouds
130° at 12 knots 7,998 meters
  • No significant clouds
TAF OTBD 201703Z 2018/2200 14005KT 8000 NSC BECMG 2100/2102 20008KT BECMG 2109/2111 13012KT
Issued Apr-20 @ 17:03 UTC
(2 hours ago)
Valid From Apr-20 @ 18:00 UTC
(38 minutes ago)
Valid To Apr-22 @ 00:00 UTC
(-1 days ago)
Apr-20 @ 18:00 - Apr-21 @ 00:00
Wind Visibility
140° at 5 knots 7,998 meters
Clouds
  • No significant clouds
Becoming Apr-21 @ 00:00 - Apr-21 @ 09:00
Wind Visibility
200° at 8 knots 7,998 meters
Clouds
  • No significant clouds
Becoming Apr-21 @ 09:00 - Apr-22 @ 00:00
Wind Visibility
130° at 12 knots 7,998 meters
Clouds
  • No significant clouds